Ahaus

DE-0508 · Renania Settentrionale-Vestfalia, Germania

Storia di METAR DE-0508 · Ahaus

Di seguito sono riportati i METAR degli ultimi giorni. Seleziona un anno per sfogliare i METAR più vecchi, dall'anno 2007 in poi.

28 maggio 2024

Tempo Codice Tempo meteorologico Temp. Vista Base nuvolosa Vento METAR/SPECI
12:20
V
17 °C 10 km+ 3.300 ft 240° 240° 10 kt METAR EDDG 281020Z AUTO 24010KT 190V280 9999 BKN033 BKN045 17/08 Q1018 NOSIG
11:50
M
16 °C 10 km+ 3.000 ft 220° 220° 10 kt METAR EDDG 280950Z AUTO 22010KT 170V270 9999 BKN030 BKN037 BKN043 16/08 Q1018 NOSIG
11:20
V
15 °C 10 km+ - 220° 220° 9 kt METAR EDDG 280920Z AUTO 22009KT 170V260 9999 FEW024 SCT035 15/07 Q1018 NOSIG
10:50
M
15 °C 10 km+ 2.900 ft 220° 220° 9 kt METAR EDDG 280850Z AUTO 22009KT 160V260 9999 SCT023 BKN029 15/09 Q1018 NOSIG
10:20
V
15 °C 10 km+ - 220° 220° 9 kt METAR EDDG 280820Z AUTO 22009KT 180V250 9999 FEW019 SCT040 15/09 Q1018 NOSIG
09:50
M
14 °C 10 km+ 2.800 ft 240° 240° 8 kt METAR EDDG 280750Z AUTO 24008KT 200V270 9999 SCT017 BKN028 BKN039 14/10 Q1018 NOSIG
09:20
M
14 °C 10 km+ 1.500 ft 230° 230° 7 kt METAR EDDG 280720Z AUTO 23007KT 190V270 9999 BKN015 BKN034 14/10 Q1018 NOSIG
08:50
V
14 °C 10 km+ - 230° 230° 6 kt METAR EDDG 280650Z AUTO 23006KT 180V270 9999 FEW011 SCT038 14/11 Q1018 NOSIG
08:20
M
12 °C 10 km+ 1.000 ft 230° 230° 8 kt METAR EDDG 280620Z AUTO 23008KT 9999 BKN010 BKN044 12/11 Q1018 BECMG SCT010 BKN020
07:50
I
12 °C 10 km+ 800 ft 240° 240° 6 kt METAR EDDG 280550Z AUTO 24006KT 200V270 9999 BKN008 BKN015 OVC049 12/11 Q1017 BECMG SCT010 BKN020
07:20
I
12 °C 10 km+ 800 ft 230° 230° 5 kt METAR EDDG 280520Z AUTO 23005KT 210V270 9999 BKN008 BKN015 BKN026 12/11 Q1017 BECMG SCT010 BKN020
06:50
V
12 °C 10 km+ 4.800 ft 230° 230° 4 kt METAR EDDG 280450Z AUTO 23004KT 200V260 9999 -DZ FEW008 SCT031 BKN048 12/11 Q1017 NOSIG
06:20
M
12 °C 9 km 2.900 ft 260° 260° 4 kt METAR EDDG 280420Z AUTO 26004KT 9000 -RADZ SCT007 BKN029 BKN044 12/11 Q1017 RERA TEMPO BKN007
05:50
M
12 °C 7 km 1.900 ft 270° 270° 5 kt METAR EDDG 280350Z AUTO 27005KT 240V300 7000 -RA SCT007 BKN019 BKN029 12/11 Q1017 RERA TEMPO BKN006
05:20
M
12 °C 7 km 2.300 ft Var Var 2 kt METAR EDDG 280320Z AUTO VRB02KT 7000 -RADZ SCT007 BKN023 BKN033 12/11 Q1017 RERA TEMPO 4000 SHRA BKN006TCU
04:50
M
12 °C 10 km+ 1.100 ft 250° 250° 4 kt METAR EDDG 280250Z AUTO 25004KT 210V270 9999 -RA BKN011 BKN026 BKN040 12/11 Q1017 TEMPO 4000 SHRA BKN008TCU
04:20
M
12 °C 10 km+ 1.600 ft 240° 240° 5 kt METAR EDDG 280220Z AUTO 24005KT 9999 SCT010 BKN016 BKN045 12/11 Q1017 TEMPO 4000 SHRA BKN010TCU
03:50
I
12 °C 10 km+ 900 ft 240° 240° 5 kt METAR EDDG 280150Z AUTO 24005KT 9999 BKN009 12/11 Q1017 TEMPO 4000 SHRA BKN006TCU
03:20
I
12 °C 10 km+ 900 ft 260° 260° 5 kt METAR EDDG 280120Z AUTO 26005KT 9999 -RA BKN009 12/11 Q1017 TEMPO BKN012
02:50
I
11 °C 10 km+ 900 ft 260° 260° 4 kt METAR EDDG 280050Z AUTO 26004KT 9999 BKN009 BKN016 11/10 Q1017 TEMPO SCT009
02:20
V
11 °C 10 km+ - 250° 250° 6 kt METAR EDDG 280020Z AUTO 25006KT 9999 SCT010 11/10 Q1017 TEMPO BKN010
01:50
V
11 °C 10 km+ - 240° 240° 6 kt METAR EDDG 272350Z AUTO 24006KT 9999 FEW008 11/10 Q1017 NOSIG
01:20
V
11 °C 10 km+ - 260° 260° 8 kt METAR EDDG 272320Z AUTO 26008KT CAVOK 11/10 Q1016 NOSIG
00:50
V
11 °C 10 km+ - 270° 270° 7 kt METAR EDDG 272250Z AUTO 27007KT CAVOK 11/10 Q1016 NOSIG
00:20
V
11 °C 10 km+ - 260° 260° 5 kt METAR EDDG 272220Z AUTO 26005KT CAVOK 11/10 Q1016 NOSIG

27 maggio 2024

Tempo Codice Tempo meteorologico Temp. Vista Base nuvolosa Vento METAR/SPECI
23:50
V
12 °C 10 km+ - 270° 270° 5 kt METAR EDDG 272150Z AUTO 27005KT CAVOK 12/11 Q1017 NOSIG
23:20
V
13 °C 10 km+ - 280° 280° 5 kt METAR EDDG 272120Z AUTO 28005KT 260V320 9999 FEW046 13/12 Q1017 RESHRA NOSIG
22:50
V
13 °C 10 km+ 4.900 ft 310° 310° 6 kt METAR EDDG 272050Z AUTO 31006KT 280V340 9999 SHRA FEW011 BKN049 FEW///TCU 13/12 Q1017 BECMG NSW
22:20
V
13 °C 10 km+ - 300° 300° 3 kt METAR EDDG 272020Z AUTO 30003KT 270V340 9999 -SHRA FEW023 SCT041 FEW///TCU 13/12 Q1017 TEMPO SHRA BKN025TCU
21:50
V
14 °C 10 km+ - 340° 340° 4 kt METAR EDDG 271950Z AUTO 34004KT 290V010 9999 -SHRA FEW///TCU 14/12 Q1016 TEMPO SHRA
21:20
V
14 °C 10 km+ - 340° 340° 3 kt METAR EDDG 271920Z AUTO 34003KT 290V030 9999 -RA NSC 14/13 Q1016 NOSIG
20:50
V
14 °C 10 km+ - Var Var 2 kt METAR EDDG 271850Z AUTO VRB02KT 9999 FEW048 14/13 Q1016 TEMPO RA
20:20
V
14 °C 10 km+ - 130° 130° 4 kt METAR EDDG 271820Z AUTO 13004KT 070V180 9999 -RA FEW049 14/12 Q1016 RESHRA TEMPO SHRA BKN040TCU
19:50
V
16 °C 10 km+ - 190° 190° 7 kt METAR EDDG 271750Z AUTO 19007KT 160V220 9999 -RA NSC 16/12 Q1016 TEMPO SHRA BKN040CB
19:20
V
18 °C 10 km+ - 280° 280° 4 kt METAR EDDG 271720Z AUTO 28004KT 9999 -RA NSC 18/13 Q1015 TEMPO SHRA BKN040CB
18:50
V
19 °C 10 km+ - 320° 320° 4 kt METAR EDDG 271650Z AUTO 32004KT 290V350 CAVOK 19/10 Q1015 TEMPO SHRA SCT040CB
18:20
V
19 °C 10 km+ - 320° 320° 5 kt METAR EDDG 271620Z AUTO 32005KT 270V360 9999 VCSH FEW///TCU 19/10 Q1015 TEMPO SHRA SCT040CB
17:50
V
20 °C 10 km+ - 290° 290° 5 kt METAR EDDG 271550Z AUTO 29005KT 260V330 CAVOK 20/10 Q1015 NOSIG
17:20
V
20 °C 10 km+ - 300° 300° 5 kt METAR EDDG 271520Z AUTO 30005KT 260V320 9999 FEW048 20/09 Q1015 NOSIG
16:50
V
21 °C 10 km+ - 330° 330° 5 kt METAR EDDG 271450Z AUTO 33005KT 290V050 9999 FEW048 21/10 Q1015 NOSIG
16:20
V
20 °C 10 km+ - 310° 310° 5 kt METAR EDDG 271420Z AUTO 31005KT 270V010 9999 SCT044 20/10 Q1016 NOSIG
15:50
V
21 °C 10 km+ - 220° 220° 7 kt METAR EDDG 271350Z AUTO 22007KT 190V260 9999 FEW044 21/09 Q1016 NOSIG
15:20
V
21 °C 10 km+ - Var Var 4 kt METAR EDDG 271320Z AUTO VRB04KT 9999 SCT041 21/11 Q1016 NOSIG
14:50
V
20 °C 10 km+ - Var Var 5 kt METAR EDDG 271250Z AUTO VRB05KT 9999 FEW043 20/10 Q1016 NOSIG
14:20
V
20 °C 10 km+ 4.000 ft 250° 250° 7 kt METAR EDDG 271220Z AUTO 25007KT 210V290 9999 BKN040 20/11 Q1017
13:50
V
20 °C 10 km+ - 240° 240° 9 kt METAR EDDG 271150Z AUTO 24009KT 160V280 9999 FEW036 SCT046 20/10 Q1017 NOSIG
13:20
V
20 °C 10 km+ - 240° 240° 9 kt METAR EDDG 271120Z AUTO 24009KT 200V270 9999 FEW032 SCT040 20/11 Q1017 NOSIG
12:50
V
20 °C 10 km+ - 240° 240° 10 kt METAR EDDG 271050Z AUTO 24010KT 210V270 9999 FEW028 SCT043 20/12 Q1017 NOSIG
12:20
V
20 °C 10 km+ - 230° 230° 8 kt METAR EDDG 271020Z AUTO 23008KT 170V260 9999 SCT027 SCT046 20/12 Q1017
11:50
V
19 °C 10 km+ - 230° 230° 7 kt METAR EDDG 270950Z AUTO 23007KT 170V260 9999 FEW026 SCT032 19/11 Q1017 NOSIG
11:20
V
18 °C 10 km+ - 220° 220° 7 kt METAR EDDG 270920Z AUTO 22007KT 170V250 9999 SCT023 SCT044 18/11 Q1017 NOSIG
10:50
V
18 °C 10 km+ - 200° 200° 4 kt METAR EDDG 270850Z AUTO 20004KT 140V240 9999 SCT021 SCT046 18/12 Q1017
10:20
V
18 °C 10 km+ 4.600 ft 220° 220° 5 kt METAR EDDG 270820Z AUTO 22005KT 180V250 9999 FEW020 SCT040 BKN046 18/12 Q1017
09:50
V
17 °C 10 km+ 3.900 ft 250° 250° 6 kt METAR EDDG 270750Z AUTO 25006KT 220V280 9999 SCT017 BKN039 BKN048 17/12 Q1017
09:20
V
17 °C 10 km+ 3.900 ft 230° 230° 4 kt METAR EDDG 270720Z AUTO 23004KT 190V290 9999 FEW015 BKN039 17/13 Q1017 NOSIG
08:50
V
17 °C 10 km+ - 190° 190° 3 kt METAR EDDG 270650Z AUTO 19003KT 130V250 9999 FEW011 17/12 Q1017
08:20
M
16 °C 10 km+ 2.100 ft 200° 200° 4 kt METAR EDDG 270620Z AUTO 20004KT 170V240 9999 BKN021 BKN042 16/13 Q1017 NOSIG
07:50
M
15 °C 10 km+ 2.600 ft 200° 200° 5 kt METAR EDDG 270550Z AUTO 20005KT 160V230 9999 BKN026 BKN035 15/13 Q1017 NOSIG
07:20
V
15 °C 10 km+ - 160° 160° 3 kt METAR EDDG 270520Z AUTO 16003KT 120V200 9999 FEW031 15/13 Q1017
06:50
V
14 °C 10 km+ - 190° 190° 3 kt METAR EDDG 270450Z AUTO 19003KT 070V230 CAVOK 14/13 Q1016 NOSIG
06:20
V
14 °C 10 km+ - 160° 160° 3 kt METAR EDDG 270420Z AUTO 16003KT 110V190 CAVOK 14/13 Q1016 NOSIG
05:50
V
14 °C 10 km+ - 190° 190° 5 kt METAR EDDG 270350Z AUTO 19005KT 150V210 CAVOK 14/13 Q1016 NOSIG
05:20
V
14 °C 10 km+ - 170° 170° 4 kt METAR EDDG 270320Z AUTO 17004KT 140V200 CAVOK 14/13 Q1016 NOSIG
04:50
V
14 °C 10 km+ - 170° 170° 4 kt METAR EDDG 270250Z AUTO 17004KT CAVOK 14/13 Q1016 NOSIG
04:20
V
14 °C 10 km+ - 160° 160° 4 kt METAR EDDG 270220Z AUTO 16004KT CAVOK 14/13 Q1016 NOSIG
03:50
V
13 °C 10 km+ - 160° 160° 3 kt METAR EDDG 270150Z AUTO 16003KT CAVOK 13/13 Q1016 NOSIG
03:20
V
14 °C 10 km+ - 180° 180° 3 kt METAR EDDG 270120Z AUTO 18003KT 140V210 CAVOK 14/13 Q1016 NOSIG
02:50
V
14 °C 10 km+ - 210° 210° 4 kt METAR EDDG 270050Z AUTO 21004KT 170V240 CAVOK 14/13 Q1016 NOSIG
02:20
V
15 °C 10 km+ - 220° 220° 4 kt METAR EDDG 270020Z AUTO 22004KT 180V240 CAVOK 15/13 Q1016 NOSIG
01:50
V
15 °C 10 km+ - 230° 230° 5 kt METAR EDDG 262350Z AUTO 23005KT 190V250 CAVOK 15/13 Q1016 NOSIG
01:20
V
15 °C 10 km+ - 220° 220° 4 kt METAR EDDG 262320Z AUTO 22004KT 180V280 CAVOK 15/13 Q1015 NOSIG
00:50
V
15 °C 10 km+ - 210° 210° 4 kt METAR EDDG 262250Z AUTO 21004KT 170V250 CAVOK 15/13 Q1016 NOSIG
00:20
V
15 °C 10 km+ - 190° 190° 6 kt METAR EDDG 262220Z AUTO 19006KT 160V220 CAVOK 15/13 Q1015 NOSIG

26 maggio 2024

Tempo Codice Tempo meteorologico Temp. Vista Base nuvolosa Vento METAR/SPECI
23:50
V
15 °C 10 km+ - 200° 200° 6 kt METAR EDDG 262150Z AUTO 20006KT 170V230 CAVOK 15/13 Q1015 NOSIG
23:20
V
15 °C 10 km+ - 160° 160° 4 kt METAR EDDG 262120Z AUTO 16004KT CAVOK 15/14 Q1015 NOSIG
22:50
V
16 °C 10 km+ - 230° 230° 4 kt METAR EDDG 262050Z AUTO 23004KT 170V310 9999 VCSH FEW///TCU 16/14 Q1015 RESHRA NOSIG
22:20
V
16 °C 10 km+ - 160° 160° 4 kt METAR EDDG 262020Z AUTO 16004KT 120V200 9999 -SHRA FEW///CB 16/14 Q1015 RESHRA NOSIG
21:50
V
16 °C 10 km+ - 220° 220° 6 kt METAR EDDG 261950Z AUTO 22006KT 160V240 9999 SHRA FEW036 FEW///TCU 16/14 Q1015 BECMG NSW
21:20
V
16 °C 10 km+ - Var Var 2 kt METAR EDDG 261920Z AUTO VRB02KT 9999 VCSH FEW035 FEW///TCU 16/15 Q1015 TEMPO 20015G25KT 4000 SHRA BKN040CB
20:50
V
15 °C 10 km+ - 110° 110° 1 kt METAR EDDG 261850Z AUTO 11001KT CAVOK 15/14 Q1014 RESHRA TEMPO 4000 SHRA BKN040CB
20:20
V
16 °C 10 km+ - Var Var 3 kt METAR EDDG 261820Z AUTO VRB03KT 9999 SHRA SCT///TCU 16/14 Q1014 TEMPO FM1900 24020G30KT 4000 SHRA BKN040CB
19:50
V
18 °C 10 km+ - 220° 220° 17 - 28 kt METAR EDDG 261750Z AUTO 22017G28KT 9999 SHRA FEW///TCU 18/12 Q1015 BECMG 20009KT NSW
19:20
V
21 °C 10 km+ - 170° 170° 6 kt METAR EDDG 261720Z AUTO 17006KT CAVOK 21/09 Q1013 TEMPO 20020G30KT 4000 SHRA SCT040CB
18:50
V
22 °C 10 km+ - 190° 190° 11 kt METAR EDDG 261650Z AUTO 19011KT 150V210 9999 VCSH FEW///TCU 22/10 Q1013 TEMPO FM1800 20020G35KT 4000 TSRA SCT040CB
18:20
V
24 °C 10 km+ - 180° 180° 7 kt METAR EDDG 261620Z AUTO 18007KT 130V210 CAVOK 24/11 Q1013 NOSIG
17:50
V
24 °C 10 km+ - 180° 180° 5 kt METAR EDDG 261550Z AUTO 18005KT 150V210 CAVOK 24/11 Q1013 NOSIG
17:20
V
23 °C 10 km+ - 180° 180° 4 kt METAR EDDG 261520Z AUTO 18004KT 140V220 CAVOK 23/11 Q1013 RESHRA NOSIG
16:50
V
23 °C 10 km+ - 170° 170° 10 kt METAR EDDG 261450Z AUTO 17010KT 140V210 9999 SHRA FEW///CB 23/11 Q1014 BECMG NSW
16:20
V
24 °C 10 km+ - 150° 150° 9 kt METAR EDDG 261420Z AUTO 15009KT 080V210 9999 VCSH FEW///CB 24/10 Q1014 TEMPO SHRA SCT035CB
15:50
V
24 °C 10 km+ - 170° 170° 9 kt METAR EDDG 261350Z AUTO 17009KT 120V200 CAVOK 24/11 Q1014 NOSIG
15:20
V
24 °C 10 km+ - 150° 150° 9 kt METAR EDDG 261320Z AUTO 15009KT 070V200 CAVOK 24/11 Q1014 NOSIG
14:50
V
23 °C 10 km+ - 140° 140° 10 kt METAR EDDG 261250Z AUTO 14010KT 070V170 9999 -SHRA FEW///CB 23/11 Q1015 NOSIG
14:20
V
23 °C 10 km+ - 150° 150° 9 kt METAR EDDG 261220Z AUTO 15009KT 100V200 CAVOK 23/11 Q1015 NOSIG
13:50
V
24 °C 10 km+ - 160° 160° 8 kt METAR EDDG 261150Z AUTO 16008KT 110V210 9999 VCSH FEW///TCU 24/12 Q1015 NOSIG
13:20
V
23 °C 10 km+ - 160° 160° 7 kt METAR EDDG 261120Z AUTO 16007KT 110V230 CAVOK 23/12 Q1015 NOSIG
12:50
V
23 °C 10 km+ - 170° 170° 7 kt METAR EDDG 261050Z AUTO 17007KT 130V210 9999 SCT046 23/12 Q1016 NOSIG
12:20
V
23 °C 10 km+ - 140° 140° 8 kt METAR EDDG 261020Z AUTO 14008KT 100V190 9999 FEW041 23/12 Q1016
11:50
V
22 °C 10 km+ - 140° 140° 7 kt METAR EDDG 260950Z AUTO 14007KT 110V180 9999 FEW034 22/12 Q1016 NOSIG
11:20
V
22 °C 10 km+ - 140° 140° 6 kt METAR EDDG 260920Z AUTO 14006KT 090V200 CAVOK 22/13 Q1016
10:50
V
21 °C 10 km+ - 130° 130° 5 kt METAR EDDG 260850Z AUTO 13005KT 050V200 CAVOK 21/14 Q1016 NOSIG
10:20
V
20 °C 10 km+ - 140° 140° 7 kt METAR EDDG 260820Z AUTO 14007KT 050V180 CAVOK 20/14 Q1017 NOSIG
09:50
V
19 °C 10 km+ - 130° 130° 5 kt METAR EDDG 260750Z AUTO 13005KT 050V200 CAVOK 19/13 Q1017 NOSIG
09:20
V
18 °C 10 km+ - 120° 120° 6 kt METAR EDDG 260720Z AUTO 12006KT 060V160 CAVOK 18/13 Q1017 NOSIG
08:50
V
18 °C 10 km+ - 100° 100° 5 kt METAR EDDG 260650Z AUTO 10005KT 020V160 CAVOK 18/13 Q1017 NOSIG
08:20
V
18 °C 10 km+ - 140° 140° 4 kt METAR EDDG 260620Z AUTO 14004KT 070V190 CAVOK 18/14 Q1017 NOSIG
07:50
V
16 °C 10 km+ - Var Var 2 kt METAR EDDG 260550Z AUTO VRB02KT CAVOK 16/13 Q1017 BECMG 16006KT
Segnala modifiche